Permanente, California
Current Conditions -  °F | °C
As of 8:56 PM on Sunday 21 Dec 2014 (Local Time) from KNUQ Reporting Station
Overcast Overcast  
Wind Chill: 59°   Ceiling: 1400
Heat Index: 59°   Visibility: 10mi
Dew Point: 57°   Wind: 3mph
Humidity: 93%   Direction: 360°N
Pressure: 30.3"   Gusts: NA
Location:  37.305°N, 122.094°W
Report Text: KNUQ 220456Z 36003KT 10SM OVC014 15/14 A3030 RMK AO2 SLP263 T01500139
Loading
Personal Weather Stations






























Interactive Weather Map New forecast layout! Learn more

10-Day Weather Forecast

Advertisements
Track Severe Weather on mobile